sensor_id;sensor_type;location;lat;lon;timestamp;pressure;altitude;pressure_sealevel;temperature;humidity
50268;BME280;36153;50.960;6.220;2023-03-14T00:02:10;98129.09;;;15.97;51.72
50268;BME280;36153;50.960;6.220;2023-03-14T00:05:13;98161.97;;;16.04;51.41
50268;BME280;36153;50.960;6.220;2023-03-14T00:08:14;98221.91;;;15.16;52.94
50268;BME280;36153;50.960;6.220;2023-03-14T00:11:19;98233.47;;;13.34;57.74
50268;BME280;36153;50.960;6.220;2023-03-14T00:14:21;98241.66;;;12.47;60.98
50268;BME280;36153;50.960;6.220;2023-03-14T00:17:23;98237.25;;;12.21;62.50
50268;BME280;36153;50.960;6.220;2023-03-14T00:20:25;98227.28;;;12.60;61.89
50268;BME280;36153;50.960;6.220;2023-03-14T00:23:30;98229.53;;;13.22;61.10
50268;BME280;36153;50.960;6.220;2023-03-14T00:26:32;98223.06;;;13.57;59.86
50268;BME280;36153;50.960;6.220;2023-03-14T00:29:33;98234.41;;;13.56;59.97
50268;BME280;36153;50.960;6.220;2023-03-14T00:32:36;98241.91;;;13.65;60.13
50268;BME280;36153;50.960;6.220;2023-03-14T00:35:38;98238.44;;;13.41;61.11
50268;BME280;36153;50.960;6.220;2023-03-14T00:38:40;98237.75;;;13.83;60.41
50268;BME280;36153;50.960;6.220;2023-03-14T00:41:41;98230.22;;;13.98;59.40
50268;BME280;36153;50.960;6.220;2023-03-14T00:44:41;98222.31;;;13.99;60.26
50268;BME280;36153;50.960;6.220;2023-03-14T00:47:41;98221.16;;;13.61;61.15
50268;BME280;36153;50.960;6.220;2023-03-14T00:50:45;98213.75;;;13.72;61.42
50268;BME280;36153;50.960;6.220;2023-03-14T00:53:46;98212.59;;;13.57;61.32
50268;BME280;36153;50.960;6.220;2023-03-14T00:56:47;98214.56;;;13.74;60.55
50268;BME280;36153;50.960;6.220;2023-03-14T00:59:47;98226.91;;;13.71;60.86
50268;BME280;36153;50.960;6.220;2023-03-14T01:02:48;98228.22;;;13.82;60.30
50268;BME280;36153;50.960;6.220;2023-03-14T01:05:48;98214.19;;;14.07;59.46
50268;BME280;36153;50.960;6.220;2023-03-14T01:08:49;98207.97;;;13.88;59.83
50268;BME280;36153;50.960;6.220;2023-03-14T01:11:49;98208.31;;;13.78;60.37
50268;BME280;36153;50.960;6.220;2023-03-14T01:14:51;98208.63;;;13.93;59.59
50268;BME280;36153;50.960;6.220;2023-03-14T01:17:54;98191.53;;;13.84;59.68
50268;BME280;36153;50.960;6.220;2023-03-14T01:20:54;98193.72;;;13.95;59.06
50268;BME280;36153;50.960;6.220;2023-03-14T01:23:56;98186.53;;;14.00;59.01
50268;BME280;36153;50.960;6.220;2023-03-14T01:26:57;98171.78;;;13.99;58.86
50268;BME280;36153;50.960;6.220;2023-03-14T01:29:57;98166.91;;;13.90;59.31
50268;BME280;36153;50.960;6.220;2023-03-14T01:32:58;98172.94;;;13.92;58.81
50268;BME280;36153;50.960;6.220;2023-03-14T01:35:59;98168.53;;;13.92;58.48
50268;BME280;36153;50.960;6.220;2023-03-14T01:39:02;98162.75;;;13.84;58.26
50268;BME280;36153;50.960;6.220;2023-03-14T01:42:03;98165.72;;;13.75;58.89
50268;BME280;36153;50.960;6.220;2023-03-14T01:45:04;98155.88;;;13.59;59.38
50268;BME280;36153;50.960;6.220;2023-03-14T01:48:04;98159.22;;;13.63;59.29
50268;BME280;36153;50.960;6.220;2023-03-14T01:51:08;98153.59;;;13.74;59.18
50268;BME280;36153;50.960;6.220;2023-03-14T01:57:36;98136.13;;;13.96;58.58
50268;BME280;36153;50.960;6.220;2023-03-14T02:00:37;98135.22;;;13.75;59.11
50268;BME280;36153;50.960;6.220;2023-03-14T02:03:53;98141.84;;;14.06;58.71
50268;BME280;36153;50.960;6.220;2023-03-14T02:07:37;98145.91;;;13.91;58.74
50268;BME280;36153;50.960;6.220;2023-03-14T02:10:44;98147.94;;;14.27;58.04
50268;BME280;36153;50.960;6.220;2023-03-14T02:13:45;98146.16;;;14.71;56.95
50268;BME280;36153;50.960;6.220;2023-03-14T02:16:45;98148.25;;;14.62;56.79
50268;BME280;36153;50.960;6.220;2023-03-14T02:23:06;98147.88;;;14.72;56.68
50268;BME280;36153;50.960;6.220;2023-03-14T02:26:15;98145.72;;;14.81;56.65
50268;BME280;36153;50.960;6.220;2023-03-14T02:29:17;98139.81;;;14.76;56.57
50268;BME280;36153;50.960;6.220;2023-03-14T02:32:18;98128.41;;;14.57;57.11
50268;BME280;36153;50.960;6.220;2023-03-14T02:35:22;98127.00;;;14.70;56.95
50268;BME280;36153;50.960;6.220;2023-03-14T02:38:45;98134.91;;;14.68;56.84
50268;BME280;36153;50.960;6.220;2023-03-14T02:41:47;98133.69;;;14.55;57.47
50268;BME280;36153;50.960;6.220;2023-03-14T02:45:25;98131.44;;;14.47;57.92
50268;BME280;36153;50.960;6.220;2023-03-14T02:48:25;98128.69;;;14.50;58.51
50268;BME280;36153;50.960;6.220;2023-03-14T02:51:27;98126.63;;;14.16;60.47
50268;BME280;36153;50.960;6.220;2023-03-14T02:54:28;98132.44;;;14.23;60.09
50268;BME280;36153;50.960;6.220;2023-03-14T02:57:28;98141.34;;;14.19;60.03
50268;BME280;36153;50.960;6.220;2023-03-14T03:00:29;98138.16;;;14.53;59.86
50268;BME280;36153;50.960;6.220;2023-03-14T03:03:33;98132.97;;;14.51;60.44
50268;BME280;36153;50.960;6.220;2023-03-14T03:06:33;98117.94;;;14.57;60.02
50268;BME280;36153;50.960;6.220;2023-03-14T03:09:34;98114.78;;;14.48;59.76
50268;BME280;36153;50.960;6.220;2023-03-14T03:12:34;98117.72;;;14.63;59.14
50268;BME280;36153;50.960;6.220;2023-03-14T03:15:34;98114.28;;;14.20;60.95
50268;BME280;36153;50.960;6.220;2023-03-14T03:18:35;98098.56;;;14.40;59.82
50268;BME280;36153;50.960;6.220;2023-03-14T03:21:35;98093.97;;;14.25;60.89
50268;BME280;36153;50.960;6.220;2023-03-14T03:24:35;98093.44;;;14.16;61.22
50268;BME280;36153;50.960;6.220;2023-03-14T03:27:37;98084.69;;;14.17;60.84
50268;BME280;36153;50.960;6.220;2023-03-14T03:30:39;98084.72;;;13.95;62.21
50268;BME280;36153;50.960;6.220;2023-03-14T03:33:40;98079.50;;;13.95;62.44
50268;BME280;36153;50.960;6.220;2023-03-14T03:36:40;98088.72;;;14.04;61.78
50268;BME280;36153;50.960;6.220;2023-03-14T03:39:40;98072.00;;;14.29;60.93
50268;BME280;36153;50.960;6.220;2023-03-14T03:42:41;98075.50;;;13.87;61.73
50268;BME280;36153;50.960;6.220;2023-03-14T03:45:41;98076.31;;;14.09;61.24
50268;BME280;36153;50.960;6.220;2023-03-14T03:48:42;98064.78;;;13.93;61.59
50268;BME280;36153;50.960;6.220;2023-03-14T03:51:42;98058.91;;;13.88;61.69
50268;BME280;36153;50.960;6.220;2023-03-14T03:54:43;98064.31;;;13.83;61.66
50268;BME280;36153;50.960;6.220;2023-03-14T03:57:43;98060.06;;;14.01;61.56
50268;BME280;36153;50.960;6.220;2023-03-14T04:00:43;98054.22;;;13.96;61.33
50268;BME280;36153;50.960;6.220;2023-03-14T04:03:44;98069.22;;;13.91;61.12
50268;BME280;36153;50.960;6.220;2023-03-14T04:06:44;98055.13;;;13.95;61.23
50268;BME280;36153;50.960;6.220;2023-03-14T04:09:44;98058.50;;;13.97;61.29
50268;BME280;36153;50.960;6.220;2023-03-14T04:12:45;98064.13;;;14.08;60.93
50268;BME280;36153;50.960;6.220;2023-03-14T04:15:45;98069.84;;;13.97;61.12
50268;BME280;36153;50.960;6.220;2023-03-14T04:18:46;98068.34;;;13.92;61.65
50268;BME280;36153;50.960;6.220;2023-03-14T04:21:46;98060.84;;;13.82;61.43
50268;BME280;36153;50.960;6.220;2023-03-14T04:24:47;98067.09;;;14.00;60.78
50268;BME280;36153;50.960;6.220;2023-03-14T04:27:47;98055.91;;;14.17;60.88
50268;BME280;36153;50.960;6.220;2023-03-14T04:30:47;98058.13;;;14.06;60.81
50268;BME280;36153;50.960;6.220;2023-03-14T04:33:48;98052.75;;;14.09;60.50
50268;BME280;36153;50.960;6.220;2023-03-14T04:36:48;98051.13;;;14.27;59.89
50268;BME280;36153;50.960;6.220;2023-03-14T04:39:49;98058.91;;;14.08;60.60
50268;BME280;36153;50.960;6.220;2023-03-14T04:42:49;98052.22;;;14.01;60.37
50268;BME280;36153;50.960;6.220;2023-03-14T04:45:49;98035.56;;;14.04;60.64
50268;BME280;36153;50.960;6.220;2023-03-14T04:48:50;98032.41;;;13.95;61.11
50268;BME280;36153;50.960;6.220;2023-03-14T04:51:50;98023.84;;;14.12;60.55
50268;BME280;36153;50.960;6.220;2023-03-14T04:54:51;98030.66;;;14.16;60.19
50268;BME280;36153;50.960;6.220;2023-03-14T04:57:51;98035.31;;;14.10;60.26
50268;BME280;36153;50.960;6.220;2023-03-14T05:00:52;98017.31;;;14.02;60.37
50268;BME280;36153;50.960;6.220;2023-03-14T05:03:52;98025.00;;;13.64;61.32
50268;BME280;36153;50.960;6.220;2023-03-14T05:06:52;98024.09;;;13.86;61.73
50268;BME280;36153;50.960;6.220;2023-03-14T05:09:53;98028.66;;;13.80;61.62
50268;BME280;36153;50.960;6.220;2023-03-14T05:12:54;98019.72;;;13.86;61.04
50268;BME280;36153;50.960;6.220;2023-03-14T05:16:04;98018.69;;;14.11;60.77
50268;BME280;36153;50.960;6.220;2023-03-14T05:19:05;98024.19;;;13.84;61.63
50268;BME280;36153;50.960;6.220;2023-03-14T05:22:05;98031.81;;;13.89;61.69
50268;BME280;36153;50.960;6.220;2023-03-14T05:25:06;98018.94;;;13.84;61.56
50268;BME280;36153;50.960;6.220;2023-03-14T05:28:07;98005.66;;;13.89;61.65
50268;BME280;36153;50.960;6.220;2023-03-14T05:31:08;98015.03;;;13.74;61.53
50268;BME280;36153;50.960;6.220;2023-03-14T05:34:08;98002.06;;;13.71;61.77
50268;BME280;36153;50.960;6.220;2023-03-14T05:37:09;97996.75;;;13.72;61.80
50268;BME280;36153;50.960;6.220;2023-03-14T05:40:10;97986.84;;;13.80;61.26
50268;BME280;36153;50.960;6.220;2023-03-14T05:43:10;97997.28;;;13.80;61.45
50268;BME280;36153;50.960;6.220;2023-03-14T05:46:11;97989.69;;;13.54;61.86
50268;BME280;36153;50.960;6.220;2023-03-14T05:49:14;97978.22;;;13.78;60.95
50268;BME280;36153;50.960;6.220;2023-03-14T05:52:15;97986.94;;;13.57;61.42
50268;BME280;36153;50.960;6.220;2023-03-14T05:55:15;97988.41;;;13.85;60.93
50268;BME280;36153;50.960;6.220;2023-03-14T05:58:15;97994.00;;;13.97;60.37
50268;BME280;36153;50.960;6.220;2023-03-14T06:01:16;97996.31;;;14.04;60.34
50268;BME280;36153;50.960;6.220;2023-03-14T06:04:16;97991.03;;;14.05;60.24
50268;BME280;36153;50.960;6.220;2023-03-14T06:07:16;97982.13;;;14.09;60.29
50268;BME280;36153;50.960;6.220;2023-03-14T06:10:17;97987.63;;;14.03;60.45
50268;BME280;36153;50.960;6.220;2023-03-14T06:13:17;97996.72;;;14.15;60.39
50268;BME280;36153;50.960;6.220;2023-03-14T06:16:18;97992.00;;;14.03;60.80
50268;BME280;36153;50.960;6.220;2023-03-14T06:19:21;97997.59;;;14.15;60.53
50268;BME280;36153;50.960;6.220;2023-03-14T06:22:22;98000.22;;;14.34;60.26
50268;BME280;36153;50.960;6.220;2023-03-14T06:25:22;98000.06;;;14.38;60.12
50268;BME280;36153;50.960;6.220;2023-03-14T06:28:22;98000.38;;;14.11;60.52
50268;BME280;36153;50.960;6.220;2023-03-14T06:31:23;97995.28;;;14.08;61.00
50268;BME280;36153;50.960;6.220;2023-03-14T06:34:23;98001.19;;;14.32;60.74
50268;BME280;36153;50.960;6.220;2023-03-14T06:37:24;97999.84;;;14.23;60.95
50268;BME280;36153;50.960;6.220;2023-03-14T06:40:24;97996.63;;;14.37;60.66
50268;BME280;36153;50.960;6.220;2023-03-14T06:47:31;98006.56;;;14.49;60.37
50268;BME280;36153;50.960;6.220;2023-03-14T06:50:32;98000.47;;;14.49;60.47
50268;BME280;36153;50.960;6.220;2023-03-14T06:53:32;98002.72;;;14.57;60.45
50268;BME280;36153;50.960;6.220;2023-03-14T06:56:33;98007.06;;;14.58;60.43
50268;BME280;36153;50.960;6.220;2023-03-14T06:59:33;98008.19;;;14.52;60.96
50268;BME280;36153;50.960;6.220;2023-03-14T07:02:34;98012.00;;;14.84;60.11
50268;BME280;36153;50.960;6.220;2023-03-14T07:05:34;98016.53;;;14.81;59.95
50268;BME280;36153;50.960;6.220;2023-03-14T07:17:48;98019.19;;;14.79;59.83
50268;BME280;36153;50.960;6.220;2023-03-14T07:21:03;98033.38;;;14.94;59.50
50268;BME280;36153;50.960;6.220;2023-03-14T07:24:05;98031.97;;;14.87;59.48
50268;BME280;36153;50.960;6.220;2023-03-14T07:27:06;98036.75;;;15.15;58.95
50268;BME280;36153;50.960;6.220;2023-03-14T07:30:07;98036.00;;;15.13;58.68
50268;BME280;36153;50.960;6.220;2023-03-14T07:33:07;98035.09;;;15.14;58.94
50268;BME280;36153;50.960;6.220;2023-03-14T07:36:08;98038.22;;;15.40;58.45
50268;BME280;36153;50.960;6.220;2023-03-14T07:39:09;98044.75;;;15.31;58.38
50268;BME280;36153;50.960;6.220;2023-03-14T07:42:09;98044.38;;;15.39;58.42
50268;BME280;36153;50.960;6.220;2023-03-14T07:45:14;98046.41;;;15.34;58.28
50268;BME280;36153;50.960;6.220;2023-03-14T07:48:14;98054.94;;;15.57;57.76
50268;BME280;36153;50.960;6.220;2023-03-14T07:51:15;98052.88;;;15.44;58.11
50268;BME280;36153;50.960;6.220;2023-03-14T07:54:15;98052.88;;;15.44;58.55
50268;BME280;36153;50.960;6.220;2023-03-14T07:57:16;98065.31;;;15.41;58.50
50268;BME280;36153;50.960;6.220;2023-03-14T08:00:17;98064.34;;;15.80;57.43
50268;BME280;36153;50.960;6.220;2023-03-14T08:03:18;98057.00;;;15.31;58.21
50268;BME280;36153;50.960;6.220;2023-03-14T08:06:19;98071.28;;;15.62;57.42
50268;BME280;36153;50.960;6.220;2023-03-14T08:09:19;98065.97;;;15.63;57.63
50268;BME280;36153;50.960;6.220;2023-03-14T08:12:20;98078.69;;;15.53;58.13
50268;BME280;36153;50.960;6.220;2023-03-14T08:15:21;98079.34;;;15.21;59.74
50268;BME280;36153;50.960;6.220;2023-03-14T08:18:21;98089.00;;;14.80;61.10
50268;BME280;36153;50.960;6.220;2023-03-14T08:21:22;98091.53;;;14.63;61.57
50268;BME280;36153;50.960;6.220;2023-03-14T08:24:34;98091.81;;;14.55;62.18
50268;BME280;36153;50.960;6.220;2023-03-14T08:27:38;98095.25;;;14.37;62.71
50268;BME280;36153;50.960;6.220;2023-03-14T08:30:39;98109.47;;;14.50;62.56
50268;BME280;36153;50.960;6.220;2023-03-14T08:33:42;98109.41;;;14.51;62.03
50268;BME280;36153;50.960;6.220;2023-03-14T08:36:43;98119.38;;;14.84;61.07
50268;BME280;36153;50.960;6.220;2023-03-14T08:39:55;98125.19;;;14.91;60.99
50268;BME280;36153;50.960;6.220;2023-03-14T08:42:58;98121.34;;;14.79;60.92
50268;BME280;36153;50.960;6.220;2023-03-14T08:49:44;98151.41;;;14.71;61.40
50268;BME280;36153;50.960;6.220;2023-03-14T08:52:47;98225.31;;;13.43;64.14
50268;BME280;36153;50.960;6.220;2023-03-14T08:55:57;98240.88;;;12.70;64.91
50268;BME280;36153;50.960;6.220;2023-03-14T08:59:18;98251.09;;;12.50;65.18
50268;BME280;36153;50.960;6.220;2023-03-14T09:02:42;98274.16;;;12.08;64.82
50268;BME280;36153;50.960;6.220;2023-03-14T09:05:55;98270.78;;;12.05;64.55
50268;BME280;36153;50.960;6.220;2023-03-14T09:12:51;98293.66;;;12.25;64.21
50268;BME280;36153;50.960;6.220;2023-03-14T09:15:53;98306.91;;;12.17;65.18
50268;BME280;36153;50.960;6.220;2023-03-14T09:18:53;98323.88;;;12.02;64.54
50268;BME280;36153;50.960;6.220;2023-03-14T09:21:54;98333.78;;;12.21;64.41
50268;BME280;36153;50.960;6.220;2023-03-14T09:24:55;98354.50;;;11.95;64.45
50268;BME280;36153;50.960;6.220;2023-03-14T09:27:55;98368.28;;;11.66;64.50
50268;BME280;36153;50.960;6.220;2023-03-14T09:30:56;98398.19;;;11.53;64.84
50268;BME280;36153;50.960;6.220;2023-03-14T09:33:56;98409.31;;;11.59;64.01
50268;BME280;36153;50.960;6.220;2023-03-14T09:36:56;98420.78;;;11.85;63.80
50268;BME280;36153;50.960;6.220;2023-03-14T09:39:57;98425.81;;;11.93;62.98
50268;BME280;36153;50.960;6.220;2023-03-14T09:42:57;98440.50;;;11.97;62.71
50268;BME280;36153;50.960;6.220;2023-03-14T09:46:00;98459.13;;;11.82;63.23
50268;BME280;36153;50.960;6.220;2023-03-14T09:49:02;98477.91;;;11.60;63.35
50268;BME280;36153;50.960;6.220;2023-03-14T09:52:11;98470.75;;;11.68;63.03
50268;BME280;36153;50.960;6.220;2023-03-14T09:55:19;98483.09;;;12.29;61.52
50268;BME280;36153;50.960;6.220;2023-03-14T10:02:25;98518.53;;;12.03;61.14
50268;BME280;36153;50.960;6.220;2023-03-14T10:05:26;98512.31;;;12.09;61.03
50268;BME280;36153;50.960;6.220;2023-03-14T10:08:29;98538.56;;;12.03;61.06
50268;BME280;36153;50.960;6.220;2023-03-14T10:11:29;98541.88;;;12.09;60.68
50268;BME280;36153;50.960;6.220;2023-03-14T10:14:38;98533.63;;;12.25;60.18
50268;BME280;36153;50.960;6.220;2023-03-14T10:17:47;98548.94;;;11.68;63.29
50268;BME280;36153;50.960;6.220;2023-03-14T10:20:49;98554.41;;;11.57;63.70
50268;BME280;36153;50.960;6.220;2023-03-14T10:23:50;98549.75;;;12.06;61.97
50268;BME280;36153;50.960;6.220;2023-03-14T10:27:17;98567.84;;;12.45;60.85
50268;BME280;36153;50.960;6.220;2023-03-14T10:30:44;98572.13;;;12.17;60.20
50268;BME280;36153;50.960;6.220;2023-03-14T10:34:03;98588.81;;;12.42;60.55
50268;BME280;36153;50.960;6.220;2023-03-14T10:37:30;98608.72;;;12.46;59.07
50268;BME280;36153;50.960;6.220;2023-03-14T10:40:41;98607.72;;;12.84;58.59
50268;BME280;36153;50.960;6.220;2023-03-14T10:44:07;98634.28;;;12.67;58.61
50268;BME280;36153;50.960;6.220;2023-03-14T10:48:21;98659.91;;;12.16;59.21
50268;BME280;36153;50.960;6.220;2023-03-14T10:51:28;98661.56;;;12.55;58.95
50268;BME280;36153;50.960;6.220;2023-03-14T10:54:31;98670.38;;;12.51;57.87
50268;BME280;36153;50.960;6.220;2023-03-14T10:57:31;98679.09;;;12.50;57.38
50268;BME280;36153;50.960;6.220;2023-03-14T11:00:32;98690.16;;;12.59;57.15
50268;BME280;36153;50.960;6.220;2023-03-14T11:03:35;98715.03;;;12.73;57.20
50268;BME280;36153;50.960;6.220;2023-03-14T11:07:03;98699.97;;;12.50;56.82
50268;BME280;36153;50.960;6.220;2023-03-14T11:13:43;98696.38;;;12.54;56.70
50268;BME280;36153;50.960;6.220;2023-03-14T11:17:11;98715.50;;;12.89;56.59
50268;BME280;36153;50.960;6.220;2023-03-14T11:24:08;98787.19;;;11.13;61.38
50268;BME280;36153;50.960;6.220;2023-03-14T11:27:23;98809.59;;;10.71;62.36
50268;BME280;36153;50.960;6.220;2023-03-14T11:33:50;98834.59;;;10.21;63.03
50268;BME280;36153;50.960;6.220;2023-03-14T11:37:07;98847.63;;;10.19;63.02
50268;BME280;36153;50.960;6.220;2023-03-14T11:40:14;98846.59;;;10.34;62.31
50268;BME280;36153;50.960;6.220;2023-03-14T11:46:38;98871.25;;;10.68;61.02
50268;BME280;36153;50.960;6.220;2023-03-14T11:53:48;98893.56;;;11.37;59.97
50268;BME280;36153;50.960;6.220;2023-03-14T11:57:05;98898.66;;;11.43;59.52
50268;BME280;36153;50.960;6.220;2023-03-14T12:00:17;98911.31;;;11.65;57.93
50268;BME280;36153;50.960;6.220;2023-03-14T12:03:24;98919.63;;;11.34;57.80
50268;BME280;36153;50.960;6.220;2023-03-14T12:06:28;98924.34;;;11.65;57.88
50268;BME280;36153;50.960;6.220;2023-03-14T12:09:33;98932.97;;;11.67;56.29
50268;BME280;36153;50.960;6.220;2023-03-14T12:12:34;98944.09;;;11.77;55.43
50268;BME280;36153;50.960;6.220;2023-03-14T12:15:40;98937.16;;;11.77;54.84
50268;BME280;36153;50.960;6.220;2023-03-14T12:18:41;98976.75;;;11.98;53.95
50268;BME280;36153;50.960;6.220;2023-03-14T12:25:26;98971.59;;;12.40;52.32
50268;BME280;36153;50.960;6.220;2023-03-14T12:28:31;98980.47;;;12.74;49.63
50268;BME280;36153;50.960;6.220;2023-03-14T12:32:05;98998.13;;;12.62;50.08
50268;BME280;36153;50.960;6.220;2023-03-14T12:35:35;99004.13;;;13.05;50.08
50268;BME280;36153;50.960;6.220;2023-03-14T12:45:15;99027.91;;;12.93;50.31
50268;BME280;36153;50.960;6.220;2023-03-14T12:48:24;99034.47;;;13.11;50.03
50268;BME280;36153;50.960;6.220;2023-03-14T12:51:37;99039.19;;;13.72;49.00
50268;BME280;36153;50.960;6.220;2023-03-14T12:57:59;99047.69;;;13.05;49.34
50268;BME280;36153;50.960;6.220;2023-03-14T13:01:05;99061.13;;;12.88;50.00
50268;BME280;36153;50.960;6.220;2023-03-14T13:04:09;99063.94;;;12.33;50.24
50268;BME280;36153;50.960;6.220;2023-03-14T13:10:42;99095.47;;;11.68;52.21
50268;BME280;36153;50.960;6.220;2023-03-14T13:13:56;99131.03;;;11.08;54.55
50268;BME280;36153;50.960;6.220;2023-03-14T13:21:16;99172.53;;;10.43;58.25
50268;BME280;36153;50.960;6.220;2023-03-14T13:24:23;99166.81;;;9.93;57.34
50268;BME280;36153;50.960;6.220;2023-03-14T13:27:30;99175.38;;;10.07;58.03
50268;BME280;36153;50.960;6.220;2023-03-14T13:30:44;99180.84;;;9.68;57.99
50268;BME280;36153;50.960;6.220;2023-03-14T13:33:45;99183.25;;;9.99;57.67
50268;BME280;36153;50.960;6.220;2023-03-14T13:36:45;99188.91;;;10.52;56.30
50268;BME280;36153;50.960;6.220;2023-03-14T13:39:54;99191.25;;;10.79;55.15
50268;BME280;36153;50.960;6.220;2023-03-14T13:43:11;99195.28;;;11.06;54.80
50268;BME280;36153;50.960;6.220;2023-03-14T13:46:20;99198.59;;;11.20;54.29
50268;BME280;36153;50.960;6.220;2023-03-14T13:49:25;99200.47;;;11.07;55.19
50268;BME280;36153;50.960;6.220;2023-03-14T13:52:36;99209.88;;;11.21;54.38
50268;BME280;36153;50.960;6.220;2023-03-14T13:55:38;99222.22;;;11.02;55.67
50268;BME280;36153;50.960;6.220;2023-03-14T13:58:39;99228.97;;;11.20;54.66
50268;BME280;36153;50.960;6.220;2023-03-14T14:01:40;99248.38;;;10.94;55.22
50268;BME280;36153;50.960;6.220;2023-03-14T14:04:41;99259.72;;;10.84;55.51
50268;BME280;36153;50.960;6.220;2023-03-14T14:07:43;99261.53;;;10.75;55.29
50268;BME280;36153;50.960;6.220;2023-03-14T14:10:46;99272.63;;;10.96;55.38
50268;BME280;36153;50.960;6.220;2023-03-14T14:13:49;99289.19;;;10.90;55.40
50268;BME280;36153;50.960;6.220;2023-03-14T14:16:53;99293.91;;;11.35;54.87
50268;BME280;36153;50.960;6.220;2023-03-14T14:19:55;99296.41;;;11.48;53.82
50268;BME280;36153;50.960;6.220;2023-03-14T14:22:56;99300.88;;;11.36;53.34
50268;BME280;36153;50.960;6.220;2023-03-14T14:25:58;99310.44;;;11.33;53.20
50268;BME280;36153;50.960;6.220;2023-03-14T14:29:04;99315.75;;;11.25;52.37
50268;BME280;36153;50.960;6.220;2023-03-14T14:35:34;99324.41;;;11.27;51.52
50268;BME280;36153;50.960;6.220;2023-03-14T14:38:35;99334.66;;;11.44;51.39
50268;BME280;36153;50.960;6.220;2023-03-14T14:41:40;99344.44;;;11.19;51.15
50268;BME280;36153;50.960;6.220;2023-03-14T14:44:43;99346.72;;;11.53;51.40
50268;BME280;36153;50.960;6.220;2023-03-14T14:47:54;99358.56;;;11.83;51.09
50268;BME280;36153;50.960;6.220;2023-03-14T14:51:06;99360.31;;;11.79;51.06
50268;BME280;36153;50.960;6.220;2023-03-14T14:54:14;99362.34;;;11.54;51.02
50268;BME280;36153;50.960;6.220;2023-03-14T14:57:36;99376.03;;;11.73;51.18
50268;BME280;36153;50.960;6.220;2023-03-14T15:00:41;99385.25;;;12.05;50.28
50268;BME280;36153;50.960;6.220;2023-03-14T15:03:43;99386.00;;;12.13;50.29
50268;BME280;36153;50.960;6.220;2023-03-14T15:06:49;99398.16;;;12.15;49.79
50268;BME280;36153;50.960;6.220;2023-03-14T15:09:50;99404.41;;;12.04;49.93
50268;BME280;36153;50.960;6.220;2023-03-14T15:12:51;99413.91;;;12.08;49.43
50268;BME280;36153;50.960;6.220;2023-03-14T15:15:51;99426.00;;;12.16;49.47
50268;BME280;36153;50.960;6.220;2023-03-14T15:19:01;99424.38;;;12.05;50.02
50268;BME280;36153;50.960;6.220;2023-03-14T15:22:02;99427.72;;;12.17;49.28
50268;BME280;36153;50.960;6.220;2023-03-14T15:25:02;99427.59;;;12.26;49.77
50268;BME280;36153;50.960;6.220;2023-03-14T15:28:03;99435.59;;;12.12;49.05
50268;BME280;36153;50.960;6.220;2023-03-14T15:31:03;99441.81;;;12.00;49.41
50268;BME280;36153;50.960;6.220;2023-03-14T15:34:04;99445.41;;;11.87;49.82
50268;BME280;36153;50.960;6.220;2023-03-14T15:37:05;99462.78;;;11.88;50.25
50268;BME280;36153;50.960;6.220;2023-03-14T15:40:12;99457.94;;;11.51;50.99
50268;BME280;36153;50.960;6.220;2023-03-14T15:43:14;99468.78;;;10.98;51.03
50268;BME280;36153;50.960;6.220;2023-03-14T15:46:14;99476.69;;;10.81;50.49
50268;BME280;36153;50.960;6.220;2023-03-14T15:49:17;99478.31;;;11.02;49.00
50268;BME280;36153;50.960;6.220;2023-03-14T15:52:17;99488.78;;;10.91;46.06
50268;BME280;36153;50.960;6.220;2023-03-14T15:55:17;99489.66;;;10.90;45.50
50268;BME280;36153;50.960;6.220;2023-03-14T15:58:19;99501.75;;;11.02;45.01
50268;BME280;36153;50.960;6.220;2023-03-14T16:01:20;99512.97;;;11.12;46.22
50268;BME280;36153;50.960;6.220;2023-03-14T16:04:20;99530.47;;;10.84;44.76
50268;BME280;36153;50.960;6.220;2023-03-14T16:07:24;99532.19;;;10.86;42.58
50268;BME280;36153;50.960;6.220;2023-03-14T16:10:24;99531.19;;;11.12;42.41
50268;BME280;36153;50.960;6.220;2023-03-14T16:13:25;99544.28;;;11.00;41.74
50268;BME280;36153;50.960;6.220;2023-03-14T16:16:26;99559.00;;;11.05;42.67
50268;BME280;36153;50.960;6.220;2023-03-14T16:19:26;99558.13;;;11.11;42.58
50268;BME280;36153;50.960;6.220;2023-03-14T16:22:29;99575.56;;;10.98;41.94
50268;BME280;36153;50.960;6.220;2023-03-14T16:25:34;99577.31;;;10.87;42.43
50268;BME280;36153;50.960;6.220;2023-03-14T16:28:35;99586.06;;;10.76;42.52
50268;BME280;36153;50.960;6.220;2023-03-14T16:31:35;99596.44;;;10.78;42.80
50268;BME280;36153;50.960;6.220;2023-03-14T16:34:42;99606.06;;;10.59;43.21
50268;BME280;36153;50.960;6.220;2023-03-14T16:37:42;99608.66;;;10.57;43.14
50268;BME280;36153;50.960;6.220;2023-03-14T16:40:42;99620.00;;;10.43;43.02
50268;BME280;36153;50.960;6.220;2023-03-14T16:43:43;99617.41;;;10.35;43.54
50268;BME280;36153;50.960;6.220;2023-03-14T16:46:43;99610.44;;;10.41;40.01
50268;BME280;36153;50.960;6.220;2023-03-14T16:49:44;99623.38;;;10.72;39.85
50268;BME280;36153;50.960;6.220;2023-03-14T16:52:44;99633.81;;;10.69;39.84
50268;BME280;36153;50.960;6.220;2023-03-14T16:55:48;99649.44;;;10.48;37.29
50268;BME280;36153;50.960;6.220;2023-03-14T16:58:49;99659.88;;;10.29;37.67
50268;BME280;36153;50.960;6.220;2023-03-14T17:01:50;99666.81;;;10.36;37.03
50268;BME280;36153;50.960;6.220;2023-03-14T17:04:51;99665.06;;;10.32;37.39
50268;BME280;36153;50.960;6.220;2023-03-14T17:07:51;99675.47;;;10.29;38.52
50268;BME280;36153;50.960;6.220;2023-03-14T17:10:51;99681.56;;;10.08;39.53
50268;BME280;36153;50.960;6.220;2023-03-14T17:13:52;99699.75;;;10.08;40.16
50268;BME280;36153;50.960;6.220;2023-03-14T17:16:52;99709.28;;;9.95;41.05
50268;BME280;36153;50.960;6.220;2023-03-14T17:19:53;99722.25;;;9.81;40.82
50268;BME280;36153;50.960;6.220;2023-03-14T17:22:53;99732.66;;;9.86;40.47
50268;BME280;36153;50.960;6.220;2023-03-14T17:25:53;99735.28;;;9.97;41.30
50268;BME280;36153;50.960;6.220;2023-03-14T17:28:54;99741.34;;;9.94;41.28